createdAt,value
2023-03-29T00:01:00.184Z,99542.03
2023-03-29T00:03:28.799Z,99547.25
2023-03-29T00:06:03.388Z,99542.88
2023-03-29T00:08:34.060Z,99529.69
2023-03-29T00:11:02.603Z,99532.16
2023-03-29T00:13:31.102Z,99524.25
2023-03-29T00:15:59.267Z,99523.38
2023-03-29T00:18:27.390Z,99514.50
2023-03-29T00:20:56.690Z,99510.84
2023-03-29T00:23:26.441Z,99516.06
2023-03-29T00:25:55.070Z,99510.97
2023-03-29T00:28:23.808Z,99508.34
2023-03-29T00:30:52.557Z,99506.56
2023-03-29T00:33:21.599Z,99504.81
2023-03-29T00:35:50.626Z,99493.28
2023-03-29T00:38:19.402Z,99500.28
2023-03-29T00:40:49.137Z,99498.66
2023-03-29T00:43:17.296Z,99504.97
2023-03-29T00:45:45.644Z,99501.47
2023-03-29T00:48:16.360Z,99501.34
2023-03-29T00:50:49.525Z,99495.97
2023-03-29T00:53:21.494Z,99489.03
2023-03-29T00:55:55.116Z,99484.63
2023-03-29T00:58:29.680Z,99475.97
2023-03-29T01:01:02.728Z,99473.53
2023-03-29T01:03:35.164Z,99475.41
2023-03-29T01:06:07.665Z,99466.91
2023-03-29T01:08:41.957Z,99468.75
2023-03-29T01:11:17.243Z,99470.44
2023-03-29T01:13:52.582Z,99478.94
2023-03-29T01:16:22.168Z,99469.22
2023-03-29T01:18:52.245Z,99473.44
2023-03-29T01:21:23.598Z,99464.81
2023-03-29T01:24:07.708Z,99462.50
2023-03-29T01:26:42.542Z,99449.59
2023-03-29T01:29:17.758Z,99454.78
2023-03-29T01:31:51.113Z,99468.94
2023-03-29T01:34:27.347Z,99467.94
2023-03-29T01:37:02.273Z,99475.63
2023-03-29T01:39:30.924Z,99478.00
2023-03-29T01:42:11.073Z,99481.22
2023-03-29T01:44:47.094Z,99478.31
2023-03-29T01:47:26.029Z,99480.78
2023-03-29T01:50:01.575Z,99478.88
2023-03-29T01:52:36.870Z,99481.50
2023-03-29T01:55:10.011Z,99477.03
2023-03-29T01:57:43.761Z,99468.19
2023-03-29T02:00:16.001Z,99469.84
2023-03-29T02:02:46.997Z,99468.88
2023-03-29T02:05:17.673Z,99456.63
2023-03-29T02:07:47.549Z,99463.50
2023-03-29T02:10:17.493Z,99462.56
2023-03-29T02:12:45.681Z,99465.16
2023-03-29T02:15:18.656Z,99453.75
2023-03-29T02:17:49.428Z,99455.59
2023-03-29T02:20:22.722Z,99450.59
2023-03-29T02:22:59.713Z,99439.56
2023-03-29T02:25:27.939Z,99445.09
2023-03-29T02:27:56.718Z,99441.97
2023-03-29T02:30:31.332Z,99443.13
2023-03-29T02:33:06.905Z,99440.72
2023-03-29T02:35:40.848Z,99440.13
2023-03-29T02:38:11.626Z,99437.66
2023-03-29T02:40:42.826Z,99428.66
2023-03-29T02:43:12.799Z,99430.00
2023-03-29T02:45:43.356Z,99422.94
2023-03-29T02:48:16.293Z,99429.81
2023-03-29T02:50:48.760Z,99424.59
2023-03-29T02:53:20.403Z,99412.41
2023-03-29T02:55:49.930Z,99413.19
2023-03-29T02:58:18.074Z,99405.91
2023-03-29T03:00:50.372Z,99397.22
2023-03-29T03:03:18.829Z,99395.47
2023-03-29T03:05:51.210Z,99389.22
2023-03-29T03:08:19.898Z,99393.47
2023-03-29T03:10:48.774Z,99393.38
2023-03-29T03:13:17.176Z,99391.91
2023-03-29T03:15:49.011Z,99386.66
2023-03-29T03:18:18.877Z,99386.66
2023-03-29T03:20:56.361Z,99387.69
2023-03-29T03:23:25.351Z,99380.03
2023-03-29T03:25:54.236Z,99380.22
2023-03-29T03:28:24.170Z,99382.75
2023-03-29T03:30:52.544Z,99365.25
2023-03-29T03:33:28.258Z,99375.66
2023-03-29T03:36:26.417Z,99371.25
2023-03-29T03:38:57.155Z,99360.47
2023-03-29T03:41:26.313Z,99348.88
2023-03-29T03:43:55.057Z,99351.44
2023-03-29T03:46:23.855Z,99351.31
2023-03-29T03:48:53.385Z,99346.88
2023-03-29T03:51:27.559Z,99351.06
2023-03-29T03:53:55.719Z,99339.56
2023-03-29T03:56:44.567Z,99328.16
2023-03-29T03:59:18.370Z,99335.09
2023-03-29T04:01:54.841Z,99323.69
2023-03-29T04:04:26.973Z,99327.00
2023-03-29T04:07:14.450Z,99321.63
2023-03-29T04:10:01.551Z,99328.59
2023-03-29T04:12:40.904Z,99325.97
2023-03-29T04:15:10.805Z,99327.78
2023-03-29T04:17:43.124Z,99331.31
2023-03-29T04:20:26.454Z,99332.06
2023-03-29T04:22:55.246Z,99336.47
2023-03-29T04:25:23.825Z,99341.63
2023-03-29T04:28:14.588Z,99345.91
2023-03-29T04:30:52.349Z,99344.94
2023-03-29T04:33:32.021Z,99338.72
2023-03-29T04:36:03.260Z,99343.94
2023-03-29T04:38:36.103Z,99342.13
2023-03-29T04:41:05.927Z,99342.94
2023-03-29T04:43:53.698Z,99346.25
2023-03-29T04:46:26.861Z,99350.66
2023-03-29T04:49:13.712Z,99342.78
2023-03-29T04:51:47.830Z,99346.09
2023-03-29T04:54:18.993Z,99345.94
2023-03-29T04:57:07.093Z,99347.41
2023-03-29T04:59:46.469Z,99339.50
2023-03-29T05:02:33.199Z,99336.03
2023-03-29T05:05:01.669Z,99335.09
2023-03-29T05:07:31.272Z,99347.53
2023-03-29T05:09:59.759Z,99333.75
2023-03-29T05:12:28.415Z,99325.09
2023-03-29T05:14:58.307Z,99326.94
2023-03-29T05:17:28.295Z,99321.81
2023-03-29T05:20:10.268Z,99321.81
2023-03-29T05:22:40.887Z,99311.31
2023-03-29T05:25:13.341Z,99312.94
2023-03-29T05:27:45.922Z,99304.13
2023-03-29T05:30:15.856Z,99293.63
2023-03-29T05:32:50.902Z,99301.50
2023-03-29T05:35:26.287Z,99294.47
2023-03-29T05:37:58.233Z,99301.25
2023-03-29T05:40:27.490Z,99303.13
2023-03-29T05:43:14.300Z,99297.88
2023-03-29T05:45:42.643Z,99302.22
2023-03-29T05:48:11.020Z,99288.25
2023-03-29T05:50:44.441Z,99294.56
2023-03-29T05:53:15.913Z,99296.31
2023-03-29T05:55:46.680Z,99298.09
2023-03-29T05:58:20.283Z,99294.59
2023-03-29T06:00:51.331Z,99286.78
2023-03-29T06:03:36.650Z,99292.03
2023-03-29T06:06:05.452Z,99305.16
2023-03-29T06:08:37.629Z,99307.91
2023-03-29T06:11:14.572Z,99312.16
2023-03-29T06:14:02.301Z,99304.22
2023-03-29T06:16:31.128Z,99311.91
2023-03-29T06:18:59.501Z,99309.13
2023-03-29T06:21:30.356Z,99304.66
2023-03-29T06:24:01.330Z,99294.94
2023-03-29T06:26:35.288Z,99296.66
2023-03-29T06:29:04.335Z,99282.63
2023-03-29T06:31:36.211Z,99286.97
2023-03-29T06:34:05.992Z,99289.56
2023-03-29T06:36:53.018Z,99282.56
2023-03-29T06:39:25.960Z,99289.44
2023-03-29T06:42:20.669Z,99281.53
2023-03-29T06:45:10.477Z,99277.13
2023-03-29T06:47:40.767Z,99264.00
2023-03-29T06:50:09.531Z,99256.13
2023-03-29T06:52:45.155Z,99259.53
2023-03-29T06:55:15.952Z,99265.63
2023-03-29T06:57:44.145Z,99257.69
2023-03-29T07:00:18.268Z,99253.22
2023-03-29T07:03:19.851Z,99261.09
2023-03-29T07:05:52.298Z,99268.91
2023-03-29T07:08:22.543Z,99263.47
2023-03-29T07:11:00.020Z,99264.13
2023-03-29T07:13:49.011Z,99258.59
2023-03-29T07:16:20.362Z,99240.13
2023-03-29T07:18:54.398Z,99227.63
2023-03-29T07:21:43.223Z,99228.28
2023-03-29T07:24:12.948Z,99221.03
2023-03-29T07:26:52.164Z,99227.00
2023-03-29T07:29:24.593Z,99215.53
2023-03-29T07:31:52.821Z,99221.44
2023-03-29T07:34:39.712Z,99222.97
2023-03-29T07:37:10.729Z,99221.91
2023-03-29T07:39:41.251Z,99221.91
2023-03-29T07:42:29.405Z,99214.09
2023-03-29T07:44:58.638Z,99210.50
2023-03-29T07:47:33.092Z,99196.34
2023-03-29T07:50:01.533Z,99186.56
2023-03-29T07:52:30.378Z,99182.84
2023-03-29T07:54:59.757Z,99191.38
2023-03-29T07:57:39.276Z,99176.34
2023-03-29T08:00:15.979Z,99177.03
2023-03-29T08:02:53.394Z,99173.47
2023-03-29T08:05:37.523Z,99187.47
2023-03-29T08:08:12.450Z,99184.84
2023-03-29T08:10:51.998Z,99171.78
2023-03-29T08:13:36.504Z,99175.34
2023-03-29T08:16:27.309Z,99159.56
2023-03-29T08:19:05.592Z,99151.63
2023-03-29T08:21:53.971Z,99152.47
2023-03-29T08:24:25.335Z,99171.78
2023-03-29T08:26:58.412Z,99164.69
2023-03-29T08:29:29.278Z,99142.75
2023-03-29T08:31:58.673Z,99141.81
2023-03-29T08:34:27.141Z,99138.25
2023-03-29T08:37:08.581Z,99125.91
2023-03-29T08:39:42.584Z,99137.25
2023-03-29T08:42:49.276Z,99129.44
2023-03-29T08:45:31.641Z,99141.66
2023-03-29T08:48:08.629Z,99124.06
2023-03-29T08:50:41.895Z,99120.44
2023-03-29T08:53:14.721Z,99116.19
2023-03-29T08:56:05.751Z,99113.56
2023-03-29T08:58:58.833Z,99129.25
2023-03-29T09:01:37.569Z,99106.44
2023-03-29T09:04:10.030Z,99103.50
2023-03-29T09:06:50.775Z,99104.75
2023-03-29T09:09:24.920Z,99110.94
2023-03-29T09:12:12.807Z,99108.31
2023-03-29T09:14:57.338Z,99114.63
2023-03-29T09:17:38.046Z,99112.56
2023-03-29T09:20:22.923Z,99114.88
2023-03-29T09:23:04.148Z,99102.59
2023-03-29T09:25:54.301Z,99109.09
2023-03-29T09:28:34.718Z,99097.63
2023-03-29T09:31:07.610Z,99094.94
2023-03-29T09:33:43.656Z,99084.34
2023-03-29T09:36:19.438Z,99086.97
2023-03-29T09:38:54.234Z,99073.06
2023-03-29T09:41:31.828Z,99072.03
2023-03-29T09:44:10.884Z,99065.94
2023-03-29T09:46:48.782Z,99056.34
2023-03-29T09:49:23.276Z,99045.88
2023-03-29T09:51:52.793Z,99046.25
2023-03-29T09:54:22.298Z,99047.63
2023-03-29T09:57:13.144Z,99036.91
2023-03-29T09:59:42.017Z,99040.16
2023-03-29T10:02:13.012Z,99025.22
2023-03-29T10:04:43.592Z,99029.72
2023-03-29T10:07:20.578Z,99030.56
2023-03-29T10:09:56.987Z,99028.88
2023-03-29T10:12:25.641Z,99023.44
2023-03-29T10:14:55.972Z,99020.81
2023-03-29T10:17:25.881Z,99026.06
2023-03-29T10:19:58.532Z,99016.22
2023-03-29T10:22:29.236Z,99010.63
2023-03-29T10:24:58.460Z,98997.38
2023-03-29T10:27:29.230Z,99000.78
2023-03-29T10:29:59.542Z,99000.28
2023-03-29T10:32:33.547Z,98994.75
2023-03-29T10:35:10.766Z,98997.31
2023-03-29T10:37:42.131Z,98992.63
2023-03-29T10:40:22.159Z,98989.22
2023-03-29T10:42:53.845Z,98979.19
2023-03-29T10:45:25.847Z,98983.03
2023-03-29T10:47:56.302Z,98977.66
2023-03-29T10:50:26.747Z,98991.78
2023-03-29T10:52:54.940Z,98984.81
2023-03-29T10:55:29.178Z,98976.97
2023-03-29T10:58:07.774Z,98972.41
2023-03-29T11:00:41.910Z,98971.25
2023-03-29T11:03:29.694Z,98972.16
2023-03-29T11:06:11.253Z,98970.34
2023-03-29T11:08:51.274Z,98961.66
2023-03-29T11:11:38.738Z,98961.41
2023-03-29T11:14:18.968Z,98957.59
2023-03-29T11:16:57.007Z,98966.25
2023-03-29T11:19:42.800Z,98962.66
2023-03-29T11:22:17.587Z,98962.66
2023-03-29T11:25:00.135Z,98979.31
2023-03-29T11:27:38.329Z,98974.72
2023-03-29T11:30:10.128Z,98959.16
2023-03-29T11:32:47.132Z,98962.44
2023-03-29T11:35:33.431Z,98962.19
2023-03-29T11:38:11.922Z,98952.72
2023-03-29T11:40:51.738Z,98948.56
2023-03-29T11:43:24.423Z,98947.34
2023-03-29T11:45:56.997Z,98944.53
2023-03-29T11:48:28.576Z,98946.41
2023-03-29T11:51:02.652Z,98951.94
2023-03-29T11:53:38.338Z,98948.19
2023-03-29T11:56:12.799Z,98959.97
2023-03-29T11:58:46.257Z,98950.38
2023-03-29T12:01:24.037Z,98944.53
2023-03-29T12:03:54.598Z,98924.78
2023-03-29T12:06:28.211Z,98938.25
2023-03-29T12:09:03.903Z,98929.38
2023-03-29T12:11:37.827Z,98920.63
2023-03-29T12:14:11.612Z,98916.28
2023-03-29T12:16:46.613Z,98923.25
2023-03-29T12:19:19.777Z,98917.03
2023-03-29T12:21:49.667Z,98920.72
2023-03-29T12:24:22.654Z,98913.75
2023-03-29T12:27:03.333Z,98917.69
2023-03-29T12:29:50.575Z,98918.72
2023-03-29T12:32:36.744Z,98917.03
2023-03-29T12:35:34.185Z,98894.25
2023-03-29T12:38:23.486Z,98900.66
2023-03-29T12:41:19.288Z,98899.06
2023-03-29T12:44:07.827Z,98893.09
2023-03-29T12:46:55.886Z,98898.38
2023-03-29T12:49:29.643Z,98900.28
2023-03-29T12:51:59.262Z,98898.56
2023-03-29T12:54:32.072Z,98899.53
2023-03-29T12:57:03.660Z,98904.78
2023-03-29T12:59:40.118Z,98892.38
2023-03-29T13:02:37.213Z,98891.41
2023-03-29T13:05:26.562Z,98884.56
2023-03-29T13:07:56.083Z,98877.84
2023-03-29T13:10:38.469Z,98871.25
2023-03-29T13:13:19.155Z,98875.56
2023-03-29T13:15:48.487Z,98859.00
2023-03-29T13:18:33.929Z,98865.03
2023-03-29T13:21:13.736Z,98863.53
2023-03-29T13:23:51.212Z,98858.91
2023-03-29T13:26:35.080Z,98864.19
2023-03-29T13:29:18.354Z,98856.59
2023-03-29T13:32:14.671Z,98862.78
2023-03-29T13:34:49.910Z,98863.72
2023-03-29T13:37:33.380Z,98853.38
2023-03-29T13:40:01.840Z,98856.19
2023-03-29T13:42:41.827Z,98851.75
2023-03-29T13:45:17.372Z,98846.69
2023-03-29T13:47:58.811Z,98836.03
2023-03-29T13:50:37.473Z,98831.34
2023-03-29T13:53:13.779Z,98830.00
2023-03-29T13:55:49.336Z,98822.44
2023-03-29T13:58:35.355Z,98821.91
2023-03-29T14:01:13.080Z,98829.03
2023-03-29T14:03:44.804Z,98811.38
2023-03-29T14:06:17.086Z,98812.00
2023-03-29T14:08:45.998Z,98807.16
2023-03-29T14:11:24.353Z,98801.09
2023-03-29T14:13:55.026Z,98802.69
2023-03-29T14:16:29.096Z,98785.06
2023-03-29T14:19:00.366Z,98794.47
2023-03-29T14:21:28.696Z,98786.56
2023-03-29T14:23:59.729Z,98785.47
2023-03-29T14:26:33.238Z,98779.31
2023-03-29T14:29:02.938Z,98787.88
2023-03-29T14:31:35.102Z,98771.38
2023-03-29T14:34:05.306Z,98768.41
2023-03-29T14:36:34.739Z,98753.81
2023-03-29T14:39:06.970Z,98765.78
2023-03-29T14:41:37.811Z,98766.19
2023-03-29T14:44:07.836Z,98765.16
2023-03-29T14:46:38.090Z,98765.69
2023-03-29T14:49:07.426Z,98753.19
2023-03-29T14:51:36.996Z,98751.09
2023-03-29T14:54:06.536Z,98760.47
2023-03-29T14:56:35.105Z,98753.88
2023-03-29T14:59:05.445Z,98734.66
2023-03-29T15:01:33.643Z,98731.09
2023-03-29T15:04:09.011Z,98730.34
2023-03-29T15:06:40.333Z,98725.19
2023-03-29T15:09:14.070Z,98743.53
2023-03-29T15:11:42.050Z,98735.22
2023-03-29T15:14:16.753Z,98728.66
2023-03-29T15:16:48.345Z,98737.13
2023-03-29T15:19:20.376Z,98735.84
2023-03-29T15:21:50.113Z,98746.78
2023-03-29T15:24:23.688Z,98740.03
2023-03-29T15:27:12.687Z,98735.88
2023-03-29T15:29:42.883Z,98722.59
2023-03-29T15:32:20.635Z,98718.63
2023-03-29T15:34:59.318Z,98721.53
2023-03-29T15:37:27.868Z,98710.19
2023-03-29T15:39:56.311Z,98709.00
2023-03-29T15:42:25.675Z,98713.34
2023-03-29T15:44:56.250Z,98710.38
2023-03-29T15:47:26.501Z,98703.97
2023-03-29T15:49:55.978Z,98704.81
2023-03-29T15:52:24.167Z,98705.69
2023-03-29T15:54:52.270Z,98687.53
2023-03-29T15:57:20.488Z,98699.16
2023-03-29T15:59:48.677Z,98697.22
2023-03-29T16:02:20.301Z,98696.16
2023-03-29T16:04:48.627Z,98673.97
2023-03-29T16:07:19.840Z,98667.22
2023-03-29T16:09:48.329Z,98666.44
2023-03-29T16:12:17.300Z,98654.19
2023-03-29T16:14:45.418Z,98657.03
2023-03-29T16:17:14.193Z,98663.41
2023-03-29T16:19:42.349Z,98659.31
2023-03-29T16:22:10.569Z,98665.88
2023-03-29T16:24:40.008Z,98655.97
2023-03-29T16:27:08.093Z,98658.91
2023-03-29T16:29:36.253Z,98660.72
2023-03-29T16:32:06.756Z,98649.22
2023-03-29T16:34:36.002Z,98647.63
2023-03-29T16:37:04.326Z,98649.72
2023-03-29T16:39:32.527Z,98645.78
2023-03-29T16:42:01.932Z,98646.19
2023-03-29T16:44:30.150Z,98641.31
2023-03-29T16:46:58.765Z,98639.84
2023-03-29T16:49:26.991Z,98633.06
2023-03-29T16:51:56.083Z,98624.63
2023-03-29T16:54:25.811Z,98623.13
2023-03-29T16:56:54.184Z,98612.78
2023-03-29T16:59:23.946Z,98618.25
2023-03-29T17:01:52.205Z,98617.59
2023-03-29T17:04:20.610Z,98601.16
2023-03-29T17:06:48.760Z,98603.03
2023-03-29T17:09:17.742Z,98592.69
2023-03-29T17:11:46.421Z,98588.78
2023-03-29T17:14:14.721Z,98579.56
2023-03-29T17:16:44.186Z,98568.38
2023-03-29T17:19:12.455Z,98567.63
2023-03-29T17:21:41.079Z,98574.91
2023-03-29T17:24:09.825Z,98565.50
2023-03-29T17:26:38.763Z,98558.00
2023-03-29T17:29:07.015Z,98554.69
2023-03-29T17:31:36.625Z,98545.94
2023-03-29T17:34:06.130Z,98560.91
2023-03-29T17:36:37.430Z,98541.06
2023-03-29T17:39:05.785Z,98535.16
2023-03-29T17:41:33.920Z,98537.91
2023-03-29T17:44:02.327Z,98515.34
2023-03-29T17:46:30.482Z,98501.44
2023-03-29T17:48:59.153Z,98503.31
2023-03-29T17:51:29.009Z,98498.25
2023-03-29T17:53:58.337Z,98500.22
2023-03-29T17:56:26.747Z,98498.63
2023-03-29T17:58:54.982Z,98515.38
2023-03-29T18:01:23.138Z,98509.38
2023-03-29T18:03:51.468Z,98501.66
2023-03-29T18:06:20.940Z,98517.44
2023-03-29T18:08:50.593Z,98534.19
2023-03-29T18:11:22.824Z,98546.38
2023-03-29T18:13:51.656Z,98553.34
2023-03-29T18:16:20.592Z,98543.59
2023-03-29T18:18:49.047Z,98534.75
2023-03-29T18:21:18.309Z,98532.94
2023-03-29T18:23:48.437Z,98532.09
2023-03-29T18:26:18.007Z,98532.22
2023-03-29T18:28:47.516Z,98535.88
2023-03-29T18:31:19.747Z,98532.50
2023-03-29T18:33:49.399Z,98521.97
2023-03-29T18:36:18.636Z,98521.22
2023-03-29T18:38:47.232Z,98513.34
2023-03-29T18:41:17.101Z,98506.34
2023-03-29T18:43:46.832Z,98500.34
2023-03-29T18:46:15.071Z,98492.47
2023-03-29T18:48:43.296Z,98493.41
2023-03-29T18:51:13.454Z,98486.44
2023-03-29T18:53:44.368Z,98487.41
2023-03-29T18:56:12.649Z,98487.41
2023-03-29T18:58:42.954Z,98490.03
2023-03-29T19:01:12.836Z,98475.19
2023-03-29T19:03:41.570Z,98470.84
2023-03-29T19:06:11.811Z,98464.66
2023-03-29T19:08:41.479Z,98457.69
2023-03-29T19:11:14.335Z,98463.91
2023-03-29T19:13:46.298Z,98458.53
2023-03-29T19:16:14.477Z,98458.63
2023-03-29T19:18:43.110Z,98451.69
2023-03-29T19:21:11.393Z,98471.88
2023-03-29T19:23:41.007Z,98475.38
2023-03-29T19:26:10.465Z,98473.69
2023-03-29T19:28:38.853Z,98453.47
2023-03-29T19:31:08.309Z,98450.75
2023-03-29T19:33:36.575Z,98460.31
2023-03-29T19:36:05.046Z,98434.94
2023-03-29T19:38:33.442Z,98433.47
2023-03-29T19:41:01.647Z,98413.34
2023-03-29T19:43:30.907Z,98423.13
2023-03-29T19:46:10.360Z,98433.66
2023-03-29T19:48:39.569Z,98427.38
2023-03-29T19:51:08.034Z,98432.63
2023-03-29T19:53:38.770Z,98428.22
2023-03-29T19:56:07.770Z,98434.22
2023-03-29T19:58:37.532Z,98435.91
2023-03-29T20:01:06.111Z,98435.16
2023-03-29T20:03:36.226Z,98446.63
2023-03-29T20:06:04.872Z,98428.22
2023-03-29T20:08:33.020Z,98427.28
2023-03-29T20:11:04.749Z,98418.44
2023-03-29T20:16:05.901Z,98403.19
2023-03-29T20:18:38.323Z,98398.66
2023-03-29T20:21:06.659Z,98398.56
2023-03-29T20:23:35.325Z,98410.16
2023-03-29T20:26:03.744Z,98411.81
2023-03-29T20:28:31.868Z,98399.41
2023-03-29T20:31:04.956Z,98392.28
2023-03-29T20:33:33.810Z,98380.81
2023-03-29T20:36:03.878Z,98380.81
2023-03-29T20:38:32.087Z,98382.50
2023-03-29T20:41:01.205Z,98376.28
2023-03-29T20:43:29.919Z,98367.44
2023-03-29T20:45:58.196Z,98372.69
2023-03-29T20:48:31.202Z,98368.38
2023-03-29T20:51:03.252Z,98362.16
2023-03-29T20:53:34.229Z,98374.38
2023-03-29T20:56:03.408Z,98372.50
2023-03-29T20:58:32.065Z,98377.78
2023-03-29T21:01:00.206Z,98380.47
2023-03-29T21:03:28.449Z,98371.75
2023-03-29T21:05:58.223Z,98374.19
2023-03-29T21:08:28.925Z,98368.94
2023-03-29T21:10:58.460Z,98374.38
2023-03-29T21:13:26.679Z,98381.53
2023-03-29T21:15:55.963Z,98367.66
2023-03-29T21:18:24.528Z,98372.06
2023-03-29T21:20:53.375Z,98374.03
2023-03-29T21:23:21.545Z,98363.72
2023-03-29T21:25:49.696Z,98372.97
2023-03-29T21:28:19.189Z,98368.84
2023-03-29T21:30:47.244Z,98363.56
2023-03-29T21:33:15.386Z,98366.09
2023-03-29T21:35:43.527Z,98349.47
2023-03-29T21:38:11.834Z,98357.06
2023-03-29T21:40:40.036Z,98364.69
2023-03-29T21:43:08.186Z,98355.84
2023-03-29T21:45:37.559Z,98356.56
2023-03-29T21:48:05.896Z,98352.25
2023-03-29T21:50:34.414Z,98358.34
2023-03-29T21:53:02.732Z,98350.34
2023-03-29T21:55:30.767Z,98342.56
2023-03-29T21:57:58.905Z,98344.06
2023-03-29T22:00:27.591Z,98349.22
2023-03-29T22:02:57.182Z,98344.06
2023-03-29T22:05:26.119Z,98345.84
2023-03-29T22:07:54.330Z,98353.00
2023-03-29T22:10:23.880Z,98340.06
2023-03-29T22:12:53.264Z,98342.75
2023-03-29T22:15:21.815Z,98338.56
2023-03-29T22:17:50.503Z,98331.59
2023-03-29T22:20:20.840Z,98323.72
2023-03-29T22:22:52.629Z,98337.50
2023-03-29T22:25:22.774Z,98348.03
2023-03-29T22:27:50.932Z,98336.66
2023-03-29T22:30:19.232Z,98347.19
2023-03-29T22:32:47.426Z,98342.75
2023-03-29T22:35:15.830Z,98340.88
2023-03-29T22:37:45.570Z,98328.56
2023-03-29T22:40:14.394Z,98334.56
2023-03-29T22:42:42.563Z,98332.88
2023-03-29T22:45:11.589Z,98329.72
2023-03-29T22:47:39.835Z,98314.31
2023-03-29T22:50:09.040Z,98321.25
2023-03-29T22:52:37.157Z,98318.75
2023-03-29T22:55:07.157Z,98316.22
2023-03-29T22:57:35.457Z,98309.16
2023-03-29T23:00:08.895Z,98316.31
2023-03-29T23:02:37.903Z,98318.97
2023-03-29T23:05:06.482Z,98304.19
2023-03-29T23:07:36.523Z,98316.72
2023-03-29T23:10:08.070Z,98307.22
2023-03-29T23:12:36.698Z,98306.69
2023-03-29T23:15:06.368Z,98303.97
2023-03-29T23:17:34.970Z,98306.47
2023-03-29T23:20:05.986Z,98308.16
2023-03-29T23:22:34.351Z,98296.19
2023-03-29T23:25:02.427Z,98310.28
2023-03-29T23:27:32.728Z,98299.94
2023-03-29T23:30:01.634Z,98309.41
2023-03-29T23:32:29.896Z,98315.63
2023-03-29T23:34:58.346Z,98303.50
2023-03-29T23:37:26.516Z,98301.00
2023-03-29T23:39:54.734Z,98308.78
2023-03-29T23:42:23.049Z,98300.03
2023-03-29T23:44:52.429Z,98298.38
2023-03-29T23:47:20.948Z,98298.25
2023-03-29T23:49:48.984Z,98297.41
2023-03-29T23:52:17.568Z,98295.63
2023-03-29T23:54:45.652Z,98297.53
2023-03-29T23:57:13.856Z,98302.84
2023-03-29T23:59:42.660Z,98302.94
